METAR Data
IDs: Format: Raw Decoded Include TAF

Data at: 0124 UTC 25 Mar 2019

KCCY 250015Z AUTO 02007KT 10SM OVC045 07/04 A3012 RMK AO2
KCCY 242355Z AUTO 02008KT 10SM OVC044 07/04 A3012 RMK AO2
KCCY 242335Z AUTO 03007KT 10SM OVC042 07/04 A3011 RMK AO2
KCCY 242315Z AUTO 03006KT 10SM OVC038 08/04 A3010 RMK AO2
KCCY 242255Z AUTO 04007KT 10SM OVC034 08/04 A3009 RMK AO2
KCCY 242235Z AUTO 03009KT 10SM OVC033 08/04 A3009 RMK AO2
KCCY 242215Z AUTO 03010KT 10SM OVC035 08/04 A3008 RMK AO2
KCCY 242155Z AUTO 02006KT 10SM OVC037 09/05 A3008 RMK AO2
KCCY 242135Z AUTO 04006KT 10SM OVC035 09/05 A3007 RMK AO2
KCCY 242115Z AUTO 03007KT 10SM OVC032 09/05 A3007 RMK AO2
KCCY 242055Z AUTO 04009KT 10SM OVC028 09/05 A3006 RMK AO2
KCCY 242035Z AUTO 05008KT 10SM OVC026 09/05 A3006 RMK AO2
KCCY 242015Z AUTO 04008KT 10SM OVC024 09/06 A3006 RMK AO2
KCCY 241955Z AUTO 04007KT 10SM OVC022 09/07 A3005 RMK AO2
KCCY 241935Z AUTO 05010KT 10SM OVC020 09/07 A3005 RMK AO2
KCCY 241915Z AUTO 05012KT 10SM OVC019 08/07 A3005 RMK AO2
KCCY 241855Z AUTO 05008G14KT 10SM FEW011 OVC019 08/07 A3005 RMK AO2
KCCY 241835Z AUTO 05010KT 10SM FEW010 BKN016 OVC020 08/07 A3004 RMK AO2
KCCY 241815Z AUTO 06010G15KT 5SM BR BKN013 OVC023 08/07 A3005 RMK AO2
KCCY 241755Z AUTO 07010KT 8SM OVC012 08/06 A3005 RMK AO2
KCCY 241735Z AUTO 05009KT 9SM OVC014 08/06 A3005 RMK AO2
KCCY 241715Z AUTO 03011KT 9SM OVC013 08/06 A3005 RMK AO2
KCCY 241655Z AUTO 05007KT 10SM BKN014 OVC039 08/06 A3005 RMK AO2
KCCY 241635Z AUTO 05008KT 9SM OVC040 08/06 A3005 RMK AO2
KCCY 241555Z AUTO 06007KT 9SM OVC040 07/06 A3005 RMK AO2
KCCY 241535Z AUTO 06010KT 9SM FEW014 OVC040 07/05 A3006 RMK AO2
KCCY 241455Z AUTO 06008KT 9SM OVC040 06/05 A3006 RMK AO2
KCCY 241315Z AUTO 06005KT 6SM BR BKN008 OVC026 05/04 A3007 RMK AO2
KCCY 241255Z AUTO 06006KT 5SM BR FEW007 SCT019 OVC026 04/04 A3006 RMK AO2
KCCY 240955Z AUTO 09008KT 5SM BR OVC043 04/04 A3005 RMK AO2 P0001
KCCY 240935Z AUTO 08006KT 4SM BR OVC044 04/04 A3005 RMK AO2
KCCY 240915Z AUTO 10007KT 3SM -UP BKN033 OVC043 04/04 A3005 RMK AO2
KCCY 240855Z AUTO 10006KT 4SM BR BKN034 BKN042 OVC049 04/04 A3006 RMK AO2 P0002
KCCY 240735Z AUTO 14007KT 6SM BR FEW029 BKN039 OVC055 05/03 A3008 RMK AO2
KCCY 240715Z AUTO 14006KT 6SM BR FEW028 BKN040 OVC048 05/03 A3009 RMK AO2
KCCY 240655Z AUTO 14007KT 9SM -UP SCT033 BKN047 OVC055 05/02 A3009 RMK AO2
KCCY 240635Z AUTO 11007KT 10SM -UP SCT031 BKN055 OVC070 05/02 A3009 RMK AO2
KCCY 240555Z AUTO 08006KT 10SM OVC075 05/01 A3010 RMK AO2
KCCY 240535Z AUTO 11006KT 10SM FEW050 BKN070 OVC085 06/01 A3010 RMK AO2
KCCY 240515Z AUTO 12006KT 10SM BKN075 OVC085 06/01 A3010 RMK AO2
KCCY 240455Z AUTO 12006KT 10SM BKN070 OVC080 06/01 A3010 RMK AO2
KCCY 240435Z AUTO 12006KT 10SM BKN080 OVC090 06/01 A3011 RMK AO2
KCCY 240415Z AUTO 12005KT 10SM OVC080 06/02 A3011 RMK AO2
KCCY 240355Z AUTO 13006KT 10SM BKN075 OVC085 06/02 A3011 RMK AO2
KCCY 240335Z AUTO 12007KT 10SM BKN065 BKN075 OVC085 06/02 A3011 RMK AO2
KCCY 240315Z AUTO 13007KT 10SM SCT060 BKN070 OVC090 06/02 A3011 RMK AO2
KCCY 240255Z AUTO 13005KT 10SM OVC090 06/02 A3011 RMK AO2
KCCY 240215Z AUTO 12006KT 10SM BKN095 OVC110 06/02 A3011 RMK AO2
KCCY 240155Z AUTO 12006KT 10SM FEW080 BKN110 OVC130 06/02 A3012 RMK AO2
KCCY 240135Z AUTO 12005KT 10SM FEW070 BKN080 OVC090 07/02 A3012 RMK AO2
KCCY 240115Z AUTO 12005KT 10SM OVC090 07/02 A3013 RMK AO2
KCCY 240055Z AUTO 13005KT 10SM OVC095 07/03 A3012 RMK AO2
KCCY 240035Z AUTO 12004KT 10SM OVC100 07/02 A3012 RMK AO2
KCCY 240015Z AUTO 12004KT 10SM OVC100 07/02 A3013 RMK AO2
KCCY 232355Z AUTO 12004KT 10SM BKN095 OVC110 08/02 A3013 RMK AO2
KCCY 232335Z AUTO 13004KT 10SM OVC095 08/03 A3013 RMK AO2
KCCY 232315Z AUTO 14004KT 10SM FEW070 SCT080 SCT090 08/02 A3013 RMK AO2
KCCY 232255Z AUTO 12006KT 10SM FEW055 SCT070 SCT080 09/03 A3013 RMK AO2
KCCY 232235Z AUTO 13005KT 10SM SCT110 SCT130 09/02 A3013 RMK AO2
KCCY 232215Z AUTO 16008KT 10SM SCT120 SCT140 10/02 A3014 RMK AO2
KCCY 232155Z AUTO 15009KT 10SM FEW120 BKN140 11/02 A3015 RMK AO2
KCCY 232135Z AUTO 16007KT 10SM BKN140 BKN160 11/02 A3014 RMK AO2
KCCY 232115Z AUTO 18011KT 10SM SCT150 11/02 A3015 RMK AO2
KCCY 232055Z AUTO 15008KT 10SM CLR 11/02 A3015 RMK AO2
KCCY 232035Z AUTO 17010KT 10SM CLR 11/02 A3016 RMK AO2
KCCY 232015Z AUTO 17006KT 10SM CLR 11/02 A3016 RMK AO2
KCCY 231955Z AUTO 16007KT 10SM CLR 11/01 A3016 RMK AO2
KCCY 231935Z AUTO 20010KT 10SM CLR 11/02 A3017 RMK AO2
KCCY 231915Z AUTO 18009KT 10SM CLR 11/02 A3017 RMK AO2
KCCY 231855Z AUTO 18007G16KT 10SM CLR 11/01 A3018 RMK AO2
KCCY 231835Z AUTO 19010KT 10SM CLR 11/01 A3019 RMK AO2
KCCY 231735Z AUTO 17009KT 10SM CLR 10/01 A3020 RMK AO2
KCCY 231715Z AUTO 19011KT 10SM CLR 10/01 A3021 RMK AO2
KCCY 231635Z AUTO 18010KT 10SM CLR 09/01 A3022 RMK AO2
KCCY 231615Z AUTO 17006KT 10SM CLR 06/00 A3024 RMK AO2
KCCY 231555Z AUTO 18006KT 10SM CLR 06/01 A3024 RMK AO2
KCCY 231535Z AUTO 16005KT 10SM CLR 05/M01 A3024 RMK AO2
KCCY 231515Z AUTO 15005KT 10SM CLR 04/M01 A3023 RMK AO2
KCCY 231455Z AUTO 15004KT 10SM CLR 03/M02 A3023 RMK AO2
KCCY 231435Z AUTO 14006KT 10SM CLR 02/M02 A3024 RMK AO2
KCCY 231415Z AUTO 15006KT 10SM CLR 02/M02 A3024 RMK AO2
KCCY 231355Z AUTO 14005KT 10SM CLR 01/M03 A3025 RMK AO2
KCCY 231335Z AUTO 16005KT 10SM CLR 00/M03 A3026 RMK AO2